createdAt,value
2018-03-19T00:01:44.438Z,6.90
2018-03-19T00:04:10.198Z,5.07
2018-03-19T00:06:35.937Z,6.93
2018-03-19T00:09:01.695Z,5.30
2018-03-19T00:11:27.430Z,7.27
2018-03-19T00:13:53.170Z,7.53
2018-03-19T00:16:18.914Z,6.90
2018-03-19T00:18:44.653Z,5.10
2018-03-19T00:21:10.372Z,5.37
2018-03-19T00:23:36.114Z,9.43
2018-03-19T00:26:01.838Z,8.13
2018-03-19T00:28:27.571Z,8.93
2018-03-19T00:30:53.315Z,8.73
2018-03-19T00:33:19.046Z,6.23
2018-03-19T00:35:44.781Z,6.33
2018-03-19T00:38:10.518Z,8.27
2018-03-19T00:40:36.266Z,7.17
2018-03-19T00:43:02.006Z,8.70
2018-03-19T00:45:27.752Z,6.17
2018-03-19T00:47:53.494Z,5.30
2018-03-19T00:50:19.234Z,8.77
2018-03-19T00:52:44.979Z,7.23
2018-03-19T00:55:10.718Z,9.97
2018-03-19T00:57:36.469Z,5.43
2018-03-19T01:00:02.228Z,6.60
2018-03-19T01:02:27.966Z,8.63
2018-03-19T01:04:53.731Z,8.37
2018-03-19T01:07:19.449Z,10.07
2018-03-19T01:09:45.185Z,8.07
2018-03-19T01:12:10.926Z,11.43
2018-03-19T01:14:36.655Z,8.90
2018-03-19T01:17:02.405Z,5.60
2018-03-19T01:19:28.145Z,5.60
2018-03-19T01:21:53.879Z,7.17
2018-03-19T01:24:19.609Z,6.00
2018-03-19T01:26:45.354Z,5.33
2018-03-19T01:29:11.090Z,8.10
2018-03-19T01:31:36.841Z,9.53
2018-03-19T01:34:02.572Z,8.23
2018-03-19T01:36:28.339Z,7.23
2018-03-19T01:38:54.077Z,7.47
2018-03-19T01:41:19.821Z,8.87
2018-03-19T01:43:45.549Z,6.10
2018-03-19T01:46:11.289Z,9.03
2018-03-19T01:48:37.010Z,8.47
2018-03-19T01:51:02.725Z,8.63
2018-03-19T01:53:28.450Z,7.37
2018-03-19T01:55:54.160Z,6.80
2018-03-19T01:58:19.889Z,8.00
2018-03-19T02:00:45.622Z,8.03
2018-03-19T02:03:11.352Z,8.57
2018-03-19T02:05:37.086Z,6.43
2018-03-19T02:08:02.834Z,8.43
2018-03-19T02:10:28.562Z,10.87
2018-03-19T02:12:54.293Z,6.07
2018-03-19T02:15:20.014Z,8.03
2018-03-19T02:17:45.746Z,6.13
2018-03-19T02:20:11.475Z,8.07
2018-03-19T02:22:37.205Z,4.40
2018-03-19T02:25:02.938Z,7.80
2018-03-19T02:27:28.674Z,4.20
2018-03-19T02:29:54.383Z,7.73
2018-03-19T02:32:20.115Z,7.87
2018-03-19T02:34:45.849Z,7.23
2018-03-19T02:37:11.595Z,8.30
2018-03-19T02:39:37.321Z,6.00
2018-03-19T02:42:03.058Z,7.60
2018-03-19T02:44:28.787Z,7.03
2018-03-19T02:46:54.526Z,7.37
2018-03-19T02:49:20.258Z,8.33
2018-03-19T02:51:45.985Z,5.87
2018-03-19T02:54:11.719Z,10.17
2018-03-19T02:56:37.439Z,11.83
2018-03-19T02:59:03.171Z,8.37
2018-03-19T03:01:28.910Z,7.10
2018-03-19T03:03:54.639Z,9.47
2018-03-19T03:06:20.382Z,7.07
2018-03-19T03:08:46.112Z,8.97
2018-03-19T03:11:11.837Z,9.73
2018-03-19T03:13:37.575Z,8.17
2018-03-19T03:16:03.294Z,6.27
2018-03-19T03:18:29.016Z,7.83
2018-03-19T03:20:54.767Z,9.00
2018-03-19T03:23:20.493Z,4.23
2018-03-19T03:25:46.246Z,6.90
2018-03-19T03:28:11.976Z,6.70
2018-03-19T03:30:37.700Z,9.17
2018-03-19T03:33:03.438Z,6.87
2018-03-19T03:35:29.162Z,8.43
2018-03-19T03:37:54.883Z,8.60
2018-03-19T03:40:20.608Z,7.63
2018-03-19T03:42:46.321Z,10.03
2018-03-19T03:45:12.066Z,9.43
2018-03-19T03:47:37.808Z,9.97
2018-03-19T03:50:03.546Z,8.77
2018-03-19T03:52:29.277Z,7.27
2018-03-19T03:54:55.002Z,5.60
2018-03-19T03:57:20.738Z,8.20
2018-03-19T03:59:46.469Z,10.27
2018-03-19T04:02:12.189Z,5.27
2018-03-19T04:04:37.919Z,8.03
2018-03-19T04:07:03.650Z,8.63
2018-03-19T04:09:29.387Z,9.30
2018-03-19T04:11:55.108Z,8.60
2018-03-19T04:14:20.851Z,8.00
2018-03-19T04:16:46.585Z,9.13
2018-03-19T04:19:12.311Z,7.80
2018-03-19T04:21:38.035Z,7.17
2018-03-19T04:24:03.764Z,6.73
2018-03-19T04:26:29.505Z,9.90
2018-03-19T04:28:55.225Z,12.63
2018-03-19T04:31:20.955Z,12.20
2018-03-19T04:33:46.682Z,10.77
2018-03-19T04:36:12.423Z,13.33
2018-03-19T04:38:38.157Z,11.20
2018-03-19T04:41:03.891Z,12.43
2018-03-19T04:43:29.670Z,9.63
2018-03-19T04:45:55.392Z,11.67
2018-03-19T04:48:21.121Z,9.47
2018-03-19T04:50:46.881Z,8.53
2018-03-19T04:53:12.598Z,7.70
2018-03-19T04:55:38.320Z,9.43
2018-03-19T04:58:10.919Z,6.87
2018-03-19T05:00:36.645Z,9.25
2018-03-19T05:03:02.399Z,7.43
2018-03-19T05:05:28.126Z,8.97
2018-03-19T05:07:53.862Z,8.03
2018-03-19T05:10:19.593Z,6.57
2018-03-19T05:12:45.327Z,8.77
2018-03-19T05:15:11.064Z,9.03
2018-03-19T05:17:36.825Z,8.27
2018-03-19T05:20:02.539Z,11.13
2018-03-19T05:22:28.284Z,9.83
2018-03-19T05:24:54.026Z,12.93
2018-03-19T05:27:19.779Z,12.53
2018-03-19T05:29:45.506Z,10.87
2018-03-19T05:32:11.250Z,11.17
2018-03-19T05:34:36.996Z,12.57
2018-03-19T05:37:02.788Z,14.37
2018-03-19T05:39:28.474Z,13.30
2018-03-19T05:41:54.208Z,11.60
2018-03-19T05:44:19.939Z,16.33
2018-03-19T05:46:45.685Z,20.57
2018-03-19T05:49:11.418Z,20.57
2018-03-19T05:51:37.138Z,23.03
2018-03-19T05:54:02.893Z,21.17
2018-03-19T05:56:28.629Z,19.53
2018-03-19T05:58:54.375Z,19.57
2018-03-19T06:01:20.119Z,18.83
2018-03-19T06:03:45.868Z,19.10
2018-03-19T06:06:11.595Z,11.40
2018-03-19T06:08:37.341Z,15.30
2018-03-19T06:11:03.073Z,13.67
2018-03-19T06:13:28.820Z,13.87
2018-03-19T06:15:54.549Z,12.10
2018-03-19T06:18:20.291Z,9.47
2018-03-19T06:20:46.028Z,10.73
2018-03-19T06:23:11.738Z,9.83
2018-03-19T06:25:37.479Z,6.70
2018-03-19T06:28:03.218Z,8.93
2018-03-19T06:30:28.986Z,9.07
2018-03-19T06:32:54.714Z,11.43
2018-03-19T06:35:20.459Z,9.97
2018-03-19T06:37:46.187Z,8.60
2018-03-19T06:40:11.927Z,10.97
2018-03-19T06:42:37.658Z,9.67
2018-03-19T06:45:03.420Z,9.50
2018-03-19T06:47:29.158Z,21.47
2018-03-19T06:49:54.905Z,35.87
2018-03-19T06:52:20.642Z,26.77
2018-03-19T06:54:46.374Z,28.63
2018-03-19T06:57:12.111Z,20.30
2018-03-19T06:59:37.842Z,19.50
2018-03-19T07:02:03.586Z,14.73
2018-03-19T07:04:29.314Z,18.13
2018-03-19T07:06:55.058Z,14.77
2018-03-19T07:09:20.798Z,15.50
2018-03-19T07:11:46.538Z,11.90
2018-03-19T07:14:12.263Z,8.43
2018-03-19T07:16:38.009Z,7.93
2018-03-19T07:19:03.746Z,8.60
2018-03-19T07:21:29.485Z,6.77
2018-03-19T07:23:55.216Z,8.53
2018-03-19T07:26:20.939Z,7.07
2018-03-19T07:28:46.665Z,7.27
2018-03-19T07:31:12.399Z,8.10
2018-03-19T07:33:38.127Z,7.30
2018-03-19T07:36:03.853Z,6.30
2018-03-19T07:38:29.573Z,6.90
2018-03-19T07:40:55.306Z,6.60
2018-03-19T07:43:21.041Z,8.13
2018-03-19T07:45:46.770Z,9.20
2018-03-19T07:48:12.516Z,7.77
2018-03-19T07:50:38.238Z,9.53
2018-03-19T07:53:03.978Z,10.47
2018-03-19T07:55:29.716Z,10.53
2018-03-19T07:57:55.443Z,8.67
2018-03-19T08:00:21.186Z,10.07
2018-03-19T08:02:46.930Z,9.13
2018-03-19T08:05:12.663Z,9.37
2018-03-19T08:07:38.386Z,11.20
2018-03-19T08:10:04.114Z,9.27
2018-03-19T08:12:29.854Z,10.10
2018-03-19T08:14:55.569Z,16.77
2018-03-19T08:17:21.294Z,9.10
2018-03-19T08:19:47.014Z,8.67
2018-03-19T08:22:12.766Z,6.63
2018-03-19T08:24:38.519Z,7.53
2018-03-19T08:27:05.142Z,7.10
2018-03-19T08:29:30.952Z,7.90
2018-03-19T08:31:56.679Z,7.30
2018-03-19T08:34:22.418Z,8.27
2018-03-19T08:36:48.142Z,8.73
2018-03-19T08:39:13.866Z,6.77
2018-03-19T08:41:39.623Z,6.73
2018-03-19T08:44:05.354Z,33.40
2018-03-19T08:46:31.077Z,9.40
2018-03-19T08:48:56.803Z,13.63
2018-03-19T08:51:22.535Z,6.20
2018-03-19T08:53:48.270Z,28.07
2018-03-19T08:56:13.990Z,7.60
2018-03-19T08:58:39.730Z,9.40
2018-03-19T09:01:05.459Z,6.90
2018-03-19T09:03:31.179Z,7.63
2018-03-19T09:05:56.911Z,8.27
2018-03-19T09:08:22.625Z,10.63
2018-03-19T09:10:48.366Z,8.83
2018-03-19T09:13:14.081Z,9.07
2018-03-19T09:15:39.811Z,12.67
2018-03-19T09:18:05.539Z,13.37
2018-03-19T09:20:31.285Z,12.33
2018-03-19T09:22:57.009Z,8.83
2018-03-19T09:25:22.741Z,10.10
2018-03-19T09:27:48.496Z,9.37
2018-03-19T09:30:14.235Z,9.23
2018-03-19T09:32:39.966Z,10.37
2018-03-19T09:35:05.904Z,8.33
2018-03-19T09:37:31.614Z,10.63
2018-03-19T09:39:57.353Z,7.47
2018-03-19T09:42:23.078Z,9.33
2018-03-19T09:44:48.819Z,6.03
2018-03-19T09:47:14.547Z,7.40
2018-03-19T09:49:40.301Z,7.97
2018-03-19T09:52:06.029Z,8.90
2018-03-19T09:54:31.754Z,7.67
2018-03-19T09:56:57.506Z,5.87
2018-03-19T09:59:23.225Z,8.43
2018-03-19T10:01:48.959Z,7.03
2018-03-19T10:04:14.694Z,7.63
2018-03-19T10:06:40.616Z,6.07
2018-03-19T10:09:06.339Z,8.33
2018-03-19T10:11:32.278Z,6.63
2018-03-19T10:13:58.046Z,8.97
2018-03-19T10:16:23.788Z,5.47
2018-03-19T10:18:56.559Z,6.50
2018-03-19T10:21:22.291Z,8.18
2018-03-19T10:23:48.000Z,6.70
2018-03-19T10:26:13.745Z,5.83
2018-03-19T10:28:39.470Z,7.27
2018-03-19T10:31:05.311Z,5.87
2018-03-19T10:33:31.049Z,7.07
2018-03-19T10:35:56.778Z,5.33
2018-03-19T10:38:22.522Z,7.27
2018-03-19T10:40:48.250Z,5.70
2018-03-19T10:43:13.979Z,6.07
2018-03-19T10:45:39.702Z,4.53
2018-03-19T10:48:05.454Z,5.90
2018-03-19T10:50:31.198Z,7.77
2018-03-19T10:52:56.991Z,6.23
2018-03-19T10:55:22.667Z,7.03
2018-03-19T10:57:48.402Z,6.07
2018-03-19T11:00:14.141Z,6.80
2018-03-19T11:02:46.030Z,6.33
2018-03-19T11:05:17.870Z,6.62
2018-03-19T11:07:45.463Z,5.35
2018-03-19T11:10:11.190Z,5.68
2018-03-19T11:12:37.725Z,6.20
2018-03-19T11:15:03.470Z,7.30
2018-03-19T11:17:29.228Z,12.70
2018-03-19T11:19:54.970Z,6.47
2018-03-19T11:22:20.701Z,6.67
2018-03-19T11:24:46.451Z,5.83
2018-03-19T11:27:12.187Z,10.40
2018-03-19T11:29:37.934Z,6.27
2018-03-19T11:32:03.683Z,8.20
2018-03-19T11:34:29.417Z,5.50
2018-03-19T11:36:55.158Z,6.70
2018-03-19T11:39:20.878Z,6.63
2018-03-19T11:41:46.648Z,7.90
2018-03-19T11:44:12.358Z,7.60
2018-03-19T11:46:38.114Z,6.20
2018-03-19T11:49:03.845Z,7.37
2018-03-19T11:51:29.574Z,8.03
2018-03-19T11:53:55.314Z,6.70
2018-03-19T11:56:21.046Z,7.63
2018-03-19T11:58:46.784Z,6.47
2018-03-19T12:01:12.614Z,6.13
2018-03-19T12:03:38.354Z,7.67
2018-03-19T12:06:04.098Z,6.17
2018-03-19T12:08:29.837Z,7.50
2018-03-19T12:10:55.562Z,9.60
2018-03-19T12:13:21.302Z,7.17
2018-03-19T12:15:47.018Z,6.47
2018-03-19T12:18:12.792Z,7.53
2018-03-19T12:20:38.538Z,6.50
2018-03-19T12:23:04.292Z,5.93
2018-03-19T12:25:30.018Z,5.83
2018-03-19T12:27:55.757Z,6.80
2018-03-19T12:30:21.481Z,4.80
2018-03-19T12:32:47.209Z,7.03
2018-03-19T12:35:12.936Z,5.23
2018-03-19T12:37:38.668Z,6.23
2018-03-19T12:40:04.402Z,8.37
2018-03-19T12:42:30.138Z,5.17
2018-03-19T12:44:55.882Z,4.73
2018-03-19T12:47:21.610Z,6.00
2018-03-19T12:49:47.350Z,6.27
2018-03-19T12:52:13.073Z,5.67
2018-03-19T12:54:38.814Z,5.13
2018-03-19T12:57:04.539Z,5.07
2018-03-19T12:59:30.278Z,6.53
2018-03-19T13:01:55.998Z,6.33
2018-03-19T13:04:21.730Z,6.87
2018-03-19T13:06:47.457Z,5.13
2018-03-19T13:09:13.214Z,5.07
2018-03-19T13:11:38.939Z,6.87
2018-03-19T13:14:04.673Z,5.30
2018-03-19T13:16:30.382Z,5.70
2018-03-19T13:18:56.109Z,6.17
2018-03-19T13:21:21.882Z,7.77
2018-03-19T13:23:47.615Z,4.83
2018-03-19T13:26:13.345Z,5.73
2018-03-19T13:28:39.072Z,5.83
2018-03-19T13:31:04.814Z,7.63
2018-03-19T13:33:30.551Z,6.60
2018-03-19T13:35:56.294Z,6.50
2018-03-19T13:38:22.023Z,5.33
2018-03-19T13:40:47.754Z,5.13
2018-03-19T13:43:13.486Z,9.17
2018-03-19T13:45:39.226Z,9.07
2018-03-19T13:48:04.970Z,9.13
2018-03-19T13:50:30.702Z,7.27
2018-03-19T13:52:56.422Z,5.53
2018-03-19T13:55:22.183Z,5.53
2018-03-19T13:57:47.919Z,7.90
2018-03-19T14:00:13.657Z,9.27
2018-03-19T14:02:39.424Z,8.63
2018-03-19T14:05:05.182Z,5.50
2018-03-19T14:07:30.911Z,7.43
2018-03-19T14:09:56.677Z,8.67
2018-03-19T14:12:22.534Z,5.93
2018-03-19T14:14:48.869Z,12.33
2018-03-19T14:17:18.463Z,8.40
2018-03-19T14:19:46.029Z,6.15
2018-03-19T14:22:12.449Z,6.43
2018-03-19T14:24:38.738Z,6.45
2018-03-19T14:27:08.401Z,6.87
2018-03-19T14:29:35.368Z,7.22
2018-03-19T14:32:02.509Z,7.30
2018-03-19T14:34:29.161Z,7.30
2018-03-19T14:36:55.951Z,6.12
2018-03-19T14:39:23.535Z,7.57
2018-03-19T14:41:54.219Z,6.00
2018-03-19T14:44:21.088Z,7.97
2018-03-19T14:46:49.349Z,6.72
2018-03-19T14:49:17.267Z,5.40
2018-03-19T14:51:43.772Z,8.60
2018-03-19T14:54:09.602Z,5.35
2018-03-19T14:56:35.422Z,6.50
2018-03-19T14:59:01.166Z,6.77
2018-03-19T15:01:26.917Z,5.40
2018-03-19T15:03:53.813Z,6.03
2018-03-19T15:06:20.650Z,5.45
2018-03-19T15:08:46.484Z,5.60
2018-03-19T15:11:12.634Z,5.83
2018-03-19T15:13:38.728Z,5.30
2018-03-19T15:16:06.246Z,6.18
2018-03-19T15:18:35.223Z,7.30
2018-03-19T15:21:03.853Z,6.07
2018-03-19T15:23:30.055Z,6.97
2018-03-19T15:25:56.707Z,6.68
2018-03-19T15:28:22.634Z,5.20
2018-03-19T15:30:48.367Z,6.57
2018-03-19T15:33:14.109Z,7.53
2018-03-19T15:35:39.845Z,6.80
2018-03-19T15:38:05.592Z,6.70
2018-03-19T15:40:31.323Z,7.40
2018-03-19T15:42:57.055Z,6.20
2018-03-19T15:45:22.794Z,7.10
2018-03-19T15:47:48.537Z,8.37
2018-03-19T15:50:14.263Z,7.23
2018-03-19T15:52:39.999Z,7.70
2018-03-19T15:55:05.733Z,8.17
2018-03-19T15:57:31.491Z,6.27
2018-03-19T15:59:57.230Z,6.77
2018-03-19T16:02:22.979Z,10.80
2018-03-19T16:04:48.724Z,6.10
2018-03-19T16:07:14.468Z,7.33
2018-03-19T16:09:40.198Z,6.50
2018-03-19T16:12:05.933Z,5.73
2018-03-19T16:14:31.673Z,9.40
2018-03-19T16:16:57.385Z,7.70
2018-03-19T16:19:23.109Z,7.30
2018-03-19T16:21:48.834Z,5.23
2018-03-19T16:24:14.769Z,7.47
2018-03-19T16:26:40.488Z,6.47
2018-03-19T16:29:06.266Z,7.60
2018-03-19T16:31:32.006Z,7.73
2018-03-19T16:33:57.751Z,7.17
2018-03-19T16:36:23.485Z,5.23
2018-03-19T16:38:49.221Z,9.87
2018-03-19T16:41:14.974Z,10.83
2018-03-19T16:43:40.919Z,7.80
2018-03-19T16:46:06.698Z,8.80
2018-03-19T16:48:32.470Z,7.47
2018-03-19T16:50:58.206Z,7.97
2018-03-19T16:53:23.962Z,8.43
2018-03-19T16:55:49.754Z,8.10
2018-03-19T16:58:15.543Z,10.30
2018-03-19T17:00:41.270Z,10.20
2018-03-19T17:03:07.020Z,6.80
2018-03-19T17:05:32.835Z,9.00
2018-03-19T17:07:58.569Z,6.40
2018-03-19T17:10:24.298Z,7.57
2018-03-19T17:12:50.056Z,6.23
2018-03-19T17:15:15.796Z,6.57
2018-03-19T17:17:41.533Z,6.43
2018-03-19T17:20:07.290Z,6.53
2018-03-19T17:22:33.010Z,7.80
2018-03-19T17:24:58.749Z,6.60
2018-03-19T17:27:24.493Z,5.83
2018-03-19T17:29:50.246Z,8.07
2018-03-19T17:32:15.982Z,8.10
2018-03-19T17:34:41.745Z,8.03
2018-03-19T17:37:07.506Z,7.57
2018-03-19T17:39:33.255Z,6.23
2018-03-19T17:41:58.994Z,8.23
2018-03-19T17:44:24.765Z,6.17
2018-03-19T17:46:50.507Z,8.60
2018-03-19T17:49:16.402Z,7.33
2018-03-19T17:51:42.147Z,5.57
2018-03-19T17:54:08.395Z,6.87
2018-03-19T17:56:34.143Z,6.05
2018-03-19T17:58:59.886Z,8.97
2018-03-19T18:01:25.630Z,7.90
2018-03-19T18:03:51.370Z,11.50
2018-03-19T18:06:17.106Z,7.93
2018-03-19T18:08:42.826Z,9.17
2018-03-19T18:11:08.566Z,6.43
2018-03-19T18:13:34.281Z,8.77
2018-03-19T18:16:00.020Z,8.47
2018-03-19T18:18:27.129Z,6.47
2018-03-19T18:20:52.922Z,6.82
2018-03-19T18:23:18.678Z,10.40
2018-03-19T18:25:45.447Z,6.47
2018-03-19T18:28:12.424Z,5.40
2018-03-19T18:30:38.197Z,6.62
2018-03-19T18:33:03.957Z,6.50
2018-03-19T18:35:29.703Z,8.37
2018-03-19T18:37:55.479Z,6.27
2018-03-19T18:40:21.222Z,8.53
2018-03-19T18:42:46.985Z,8.50
2018-03-19T18:45:12.745Z,9.03
2018-03-19T18:47:38.476Z,8.80
2018-03-19T18:50:04.257Z,9.13
2018-03-19T18:52:29.937Z,7.33
2018-03-19T18:54:55.691Z,6.93
2018-03-19T18:57:21.406Z,8.07
2018-03-19T18:59:47.122Z,7.67
2018-03-19T19:02:12.838Z,7.63
2018-03-19T19:04:38.553Z,9.47
2018-03-19T19:07:04.286Z,11.10
2018-03-19T19:09:30.018Z,11.70
2018-03-19T19:11:55.749Z,9.60
2018-03-19T19:14:21.473Z,8.93
2018-03-19T19:16:47.220Z,8.07
2018-03-19T19:19:12.944Z,10.23
2018-03-19T19:21:38.664Z,10.93
2018-03-19T19:24:04.387Z,10.23
2018-03-19T19:26:30.182Z,10.60
2018-03-19T19:28:56.139Z,9.83
2018-03-19T19:31:22.042Z,10.43
2018-03-19T19:33:47.982Z,8.37
2018-03-19T19:36:13.704Z,9.17
2018-03-19T19:38:39.422Z,10.23
2018-03-19T19:41:05.158Z,9.93
2018-03-19T19:43:30.889Z,10.77
2018-03-19T19:45:56.763Z,9.17
2018-03-19T19:48:22.799Z,7.60
2018-03-19T19:50:48.819Z,7.62
2018-03-19T19:53:14.830Z,7.87
2018-03-19T19:55:40.550Z,9.35
2018-03-19T19:58:06.277Z,7.63
2018-03-19T20:00:32.344Z,7.80
2018-03-19T20:02:58.072Z,6.72
2018-03-19T20:05:23.793Z,11.00
2018-03-19T20:07:49.529Z,9.50
2018-03-19T20:10:15.246Z,7.93
2018-03-19T20:12:40.969Z,9.40
2018-03-19T20:15:06.684Z,8.47
2018-03-19T20:17:32.414Z,8.00
2018-03-19T20:19:58.175Z,8.53
2018-03-19T20:22:24.010Z,7.20
2018-03-19T20:24:49.726Z,9.60
2018-03-19T20:27:15.449Z,10.43
2018-03-19T20:29:41.195Z,8.63
2018-03-19T20:32:06.918Z,9.03
2018-03-19T20:34:32.655Z,8.40
2018-03-19T20:36:58.554Z,6.90
2018-03-19T20:39:24.498Z,10.63
2018-03-19T20:41:50.224Z,10.50
2018-03-19T20:44:15.943Z,12.80
2018-03-19T20:46:41.694Z,10.50
2018-03-19T20:49:07.479Z,8.73
2018-03-19T20:51:33.173Z,8.67
2018-03-19T20:53:58.982Z,10.93
2018-03-19T20:56:24.851Z,10.83
2018-03-19T20:58:50.766Z,12.93
2018-03-19T21:01:16.760Z,10.00
2018-03-19T21:03:42.837Z,11.60
2018-03-19T21:06:08.779Z,10.38
2018-03-19T21:08:34.537Z,10.73
2018-03-19T21:11:00.410Z,12.67
2018-03-19T21:13:26.363Z,14.03
2018-03-19T21:15:52.264Z,17.07
2018-03-19T21:18:18.234Z,17.13
2018-03-19T21:20:44.075Z,14.97
2018-03-19T21:23:09.822Z,17.20
2018-03-19T21:25:35.574Z,19.53
2018-03-19T21:28:01.310Z,11.50
2018-03-19T21:30:27.048Z,16.67
2018-03-19T21:32:52.780Z,13.23
2018-03-19T21:35:18.521Z,15.20
2018-03-19T21:37:44.250Z,11.87
2018-03-19T21:40:09.982Z,18.00
2018-03-19T21:42:35.701Z,20.73
2018-03-19T21:45:01.442Z,15.83
2018-03-19T21:47:27.185Z,14.43
2018-03-19T21:49:53.055Z,21.53
2018-03-19T21:52:18.798Z,19.53
2018-03-19T21:54:44.546Z,11.23
2018-03-19T21:57:10.257Z,18.67
2018-03-19T21:59:36.001Z,14.73
2018-03-19T22:02:01.734Z,15.37
2018-03-19T22:04:27.742Z,21.87
2018-03-19T22:06:53.469Z,14.60
2018-03-19T22:09:19.229Z,19.20
2018-03-19T22:11:45.136Z,13.40
2018-03-19T22:14:11.058Z,19.07
2018-03-19T22:16:36.809Z,18.37
2018-03-19T22:19:02.683Z,15.90
2018-03-19T22:21:28.520Z,19.80
2018-03-19T22:23:54.251Z,11.80
2018-03-19T22:26:19.989Z,16.47
2018-03-19T22:28:45.706Z,17.10
2018-03-19T22:31:11.428Z,14.53
2018-03-19T22:33:37.140Z,17.43
2018-03-19T22:36:02.870Z,14.20
2018-03-19T22:38:28.596Z,15.30
2018-03-19T22:40:54.325Z,20.80
2018-03-19T22:43:20.043Z,18.20
2018-03-19T22:45:45.774Z,16.63
2018-03-19T22:48:11.518Z,15.23
2018-03-19T22:50:37.230Z,14.27
2018-03-19T22:53:02.958Z,16.50
2018-03-19T22:55:28.683Z,17.77
2018-03-19T22:57:54.413Z,15.43
2018-03-19T23:00:20.124Z,16.87
2018-03-19T23:02:45.861Z,18.27
2018-03-19T23:05:26.561Z,15.07
2018-03-19T23:07:52.286Z,18.12
2018-03-19T23:10:17.997Z,18.07
2018-03-19T23:12:43.753Z,16.80
2018-03-19T23:15:09.474Z,19.23
2018-03-19T23:17:35.227Z,19.53
2018-03-19T23:20:00.959Z,25.53
2018-03-19T23:22:26.690Z,20.23
2018-03-19T23:24:52.406Z,26.07
2018-03-19T23:27:18.130Z,21.03
2018-03-19T23:29:43.853Z,23.20
2018-03-19T23:32:09.578Z,24.57
2018-03-19T23:34:35.297Z,26.83
2018-03-19T23:37:01.017Z,25.27
2018-03-19T23:39:26.758Z,23.57
2018-03-19T23:41:52.474Z,29.43
2018-03-19T23:44:18.213Z,30.37
2018-03-19T23:46:43.933Z,21.43
2018-03-19T23:49:09.666Z,34.67
2018-03-19T23:51:35.389Z,33.63
2018-03-19T23:54:01.114Z,34.23
2018-03-19T23:56:26.840Z,23.83
2018-03-19T23:58:52.566Z,28.87
